Time;durP1;ratioP1;P1;durP2;ratioP2;P2;SDS_P1;SDS_P2;PMS_P1;PMS_P2;Temp;Humidity;BMP_temperature;BMP_pressure;BME280_temperature;BME280_humidity;BME280_pressure;Samples;Min_cycle;Max_cycle;Signal;HPM_P1;HPM_P2
2022/10/19 00:00:13;;;;;;;5.70;1.30;;;;;;;9.08;100.00;102708.81;2080124;28;28397;-74
2022/10/19 00:01:22;;;;;;;5.05;1.02;;;;;;;9.07;100.00;102707.94;2079854;28;32480;-74
2022/10/19 00:02:24;;;;;;;8.40;1.27;;;;;;;9.09;100.00;102710.63;2080170;28;37376;-74
2022/10/19 00:03:25;;;;;;;7.05;1.02;;;;;;;9.10;100.00;102707.97;2080140;28;34941;-74
2022/10/19 00:04:27;;;;;;;8.05;1.45;;;;;;;9.13;100.00;102709.78;2079401;28;38772;-74
2022/10/19 00:05:29;;;;;;;9.02;1.40;;;;;;;9.13;100.00;102707.09;2079990;28;27273;-74
2022/10/19 00:06:34;;;;;;;6.75;1.38;;;;;;;9.12;100.00;102708.91;2080541;28;22304;-74
2022/10/19 00:07:36;;;;;;;7.47;1.00;;;;;;;9.16;100.00;102710.72;2079739;28;32946;-74
2022/10/19 00:08:38;;;;;;;8.18;1.35;;;;;;;9.14;100.00;102701.78;2080061;28;35295;-74
2022/10/19 00:09:43;;;;;;;8.80;1.30;;;;;;;9.16;100.00;102702.69;2079484;28;36331;-74
2022/10/19 00:10:44;;;;;;;9.00;1.40;;;;;;;9.16;100.00;102705.38;2080044;28;30426;-74
2022/10/19 00:11:49;;;;;;;8.07;1.38;;;;;;;9.16;100.00;102697.34;2079839;28;31751;-73
2022/10/19 00:12:50;;;;;;;7.70;1.10;;;;;;;9.16;100.00;102705.38;2079652;28;39371;-74
2022/10/19 00:13:54;;;;;;;12.88;1.30;;;;;;;9.17;100.00;102708.97;2079368;28;35969;-75
2022/10/19 00:14:56;;;;;;;11.68;1.30;;;;;;;9.20;100.00;102702.75;2079846;28;31129;-75
2022/10/19 00:15:57;;;;;;;8.82;1.30;;;;;;;9.20;100.00;102702.75;2070984;28;32790;-75
2022/10/19 00:16:59;;;;;;;9.35;1.10;;;;;;;9.19;100.00;102704.53;2071553;28;32279;-75
2022/10/19 00:18:01;;;;;;;9.32;1.30;;;;;;;9.20;100.00;102703.63;2078077;28;37592;-75
2022/10/19 00:19:07;;;;;;;10.13;1.38;;;;;;;9.21;100.00;102702.75;2079600;28;36796;-75
2022/10/19 00:20:10;;;;;;;7.25;1.05;;;;;;;9.22;100.00;102707.22;2078741;28;30949;-75
2022/10/19 00:21:16;;;;;;;8.95;1.30;;;;;;;9.23;100.00;102700.13;2071391;28;35000;-75
2022/10/19 00:22:17;;;;;;;9.50;1.10;;;;;;;9.23;100.00;102706.34;2080211;28;20038;-75
2022/10/19 00:23:20;;;;;;;9.45;1.55;;;;;;;9.26;100.00;102705.47;2079722;28;40193;-75
2022/10/19 00:24:22;;;;;;;13.43;1.50;;;;;;;9.28;100.00;102701.06;2079421;28;34028;-74
2022/10/19 00:25:24;;;;;;;8.50;1.00;;;;;;;9.28;100.00;102709.97;2080848;28;20856;-75
2022/10/19 00:26:25;;;;;;;5.90;0.90;;;;;;;9.29;100.00;102713.53;2078820;28;39526;-75
2022/10/19 00:27:27;;;;;;;7.90;1.05;;;;;;;9.29;100.00;102710.84;2080112;28;20076;-75
2022/10/19 00:28:29;;;;;;;8.88;1.25;;;;;;;9.30;100.00;102713.53;2080213;28;20044;-75
2022/10/19 00:29:31;;;;;;;6.75;1.00;;;;;;;9.32;100.00;102706.44;2070783;28;37275;-75
2022/10/19 00:30:37;;;;;;;7.85;1.45;;;;;;;9.33;100.00;102708.25;2071262;28;36038;-75
2022/10/19 00:31:40;;;;;;;9.25;1.63;;;;;;;9.32;100.00;102710.91;2080430;28;32652;-75
2022/10/19 00:32:44;;;;;;;5.32;1.00;;;;;;;9.32;100.00;102702.88;2079877;28;37525;-75
2022/10/19 00:33:46;;;;;;;11.43;1.50;;;;;;;9.32;100.00;102706.44;2079232;28;35819;-75
2022/10/19 00:34:50;;;;;;;7.68;0.98;;;;;;;9.32;100.00;102698.41;2071478;28;38158;-74
2022/10/19 00:35:52;;;;;;;7.05;1.17;;;;;;;9.33;100.00;102701.97;2071446;28;30210;-75
2022/10/19 00:36:54;;;;;;;7.47;0.95;;;;;;;9.32;100.00;102703.75;2071338;28;20982;-75
2022/10/19 00:37:55;;;;;;;7.88;0.70;;;;;;;9.32;100.00;102697.53;2071586;28;38387;-75
2022/10/19 00:38:59;;;;;;;6.80;1.10;;;;;;;9.32;100.00;102703.75;2071611;28;34463;-75
2022/10/19 00:40:00;;;;;;;9.18;0.93;;;;;;;9.33;100.00;102697.56;2071473;28;36743;-74
2022/10/19 00:41:02;;;;;;;6.97;0.88;;;;;;;9.33;100.00;102702.91;2071728;28;32296;-75
2022/10/19 00:42:04;;;;;;;6.53;1.10;;;;;;;9.33;100.00;102708.25;2071706;28;31276;-76
2022/10/19 00:43:20;;;;;;;6.60;0.75;;;;;;;9.33;100.00;102712.66;2063212;28;20038;-75
2022/10/19 00:44:27;;;;;;;8.38;1.08;;;;;;;9.35;100.00;102713.63;2065358;28;31318;-75
2022/10/19 00:45:29;;;;;;;5.90;0.80;;;;;;;9.34;100.00;102706.47;2071399;28;40919;-75
2022/10/19 00:46:35;;;;;;;5.63;0.98;;;;;;;9.35;100.00;102714.50;2071443;28;27119;-74
2022/10/19 00:47:38;;;;;;;10.90;1.45;;;;;;;9.31;100.00;102707.34;2055696;28;35383;-74
2022/10/19 00:48:40;;;;;;;6.30;0.82;;;;;;;9.32;100.00;102709.09;2055515;28;39446;-74
2022/10/19 00:49:44;;;;;;;7.07;0.98;;;;;;;9.32;100.00;102710.91;2070452;28;35887;-74
2022/10/19 00:50:49;;;;;;;5.43;0.55;;;;;;;9.32;100.00;102708.22;2071982;28;20038;-75
2022/10/19 00:51:57;;;;;;;8.80;1.10;;;;;;;9.32;100.00;102713.56;2072050;28;29242;-75
2022/10/19 00:52:58;;;;;;;8.98;1.27;;;;;;;9.32;100.00;102714.47;2071780;28;29702;-75
2022/10/19 00:54:03;;;;;;;7.90;0.70;;;;;;;9.33;100.00;102712.66;2070779;28;33276;-74
2022/10/19 00:55:07;;;;;;;7.53;0.80;;;;;;;9.36;100.00;102712.72;2063259;28;35037;-74
2022/10/19 00:56:14;;;;;;;3.60;0.60;;;;;;;9.35;100.00;102708.25;2070748;28;37754;-74
2022/10/19 00:57:16;;;;;;;6.45;0.77;;;;;;;9.35;100.00;102705.59;2071585;28;35965;-74
2022/10/19 00:58:18;;;;;;;8.68;0.90;;;;;;;9.33;100.00;102704.66;2071754;28;29247;-74
2022/10/19 00:59:24;;;;;;;5.70;0.65;;;;;;;9.33;100.00;102710.00;2071459;28;40103;-75
2022/10/19 01:00:26;;;;;;;6.18;0.70;;;;;;;9.31;100.00;102704.66;2071638;28;36420;-76
2022/10/19 01:01:28;;;;;;;6.95;0.80;;;;;;;9.32;100.00;102705.56;2063764;28;20045;-74
2022/10/19 01:02:29;;;;;;;6.70;0.70;;;;;;;9.32;100.00;102705.56;2063003;28;29634;-74
2022/10/19 01:03:32;;;;;;;10.25;0.80;;;;;;;9.33;100.00;102704.66;2071175;28;31285;-74
2022/10/19 01:04:38;;;;;;;5.82;0.90;;;;;;;9.31;100.00;102698.41;2077513;28;20046;-74
2022/10/19 01:05:41;;;;;;;8.85;0.80;;;;;;;9.29;100.00;102701.06;2080092;28;28702;-74
2022/10/19 01:06:42;;;;;;;6.93;0.57;;;;;;;9.28;100.00;102701.06;2086623;28;30791;-74
2022/10/19 01:07:44;;;;;;;4.90;0.60;;;;;;;9.25;100.00;102704.56;2079605;28;37498;-74
2022/10/19 01:08:46;;;;;;;6.72;0.52;;;;;;;9.24;100.00;102705.47;2079625;28;30393;-74
2022/10/19 01:09:50;;;;;;;2.67;0.55;;;;;;;9.23;100.00;102706.34;2080261;28;20046;-74
2022/10/19 01:11:23;;;;;;;4.63;0.40;;;;;;;9.22;100.00;102703.66;2079575;28;31222;-74
2022/10/19 01:12:56;;;;;;;8.95;0.70;;;;;;;9.20;100.00;102706.31;2079542;28;20116;-74
2022/10/19 01:14:31;;;;;;;5.97;0.50;;;;;;;9.21;100.00;102701.88;2079894;28;33116;-74
2022/10/19 01:15:54;;;;;;;8.77;0.82;;;;;;;9.20;100.00;102706.31;2079960;28;31741;-74
2022/10/19 01:17:32;;;;;;;6.85;0.52;;;;;;;9.18;100.00;102714.28;2079307;28;29356;-74
2022/10/19 01:18:49;;;;;;;8.43;0.60;;;;;;;9.17;100.00;102706.28;2079732;28;32630;-74
2022/10/19 01:20:39;;;;;;;5.00;0.50;;;;;;;9.17;100.00;102707.19;2079340;28;30428;-74
2022/10/19 01:21:49;;;;;;;5.05;0.63;;;;;;;9.19;100.00;102704.53;2079669;28;33002;-73
2022/10/19 01:23:31;;;;;;;;;;;;;;;9.20;100.00;102716.09;2079805;28;39953;-75
2022/10/19 01:24:55;;;;;;;4.53;0.63;;;;;;;9.21;100.00;102712.56;2069782;28;41020;-75
2022/10/19 01:26:27;;;;;;;5.32;0.73;;;;;;;9.23;100.00;102713.47;2072915;28;34558;-74
2022/10/19 01:27:51;;;;;;;6.07;0.93;;;;;;;9.26;100.00;102709.06;2080350;28;25506;-75
2022/10/19 01:29:23;;;;;;;5.78;0.90;;;;;;;9.30;100.00;102710.88;2079760;28;20761;-74
2022/10/19 01:30:25;;;;;;;5.63;0.55;;;;;;;9.32;100.00;102710.91;2085193;28;33432;-74
2022/10/19 01:31:46;;;;;;;8.70;0.73;;;;;;;9.35;100.00;102710.94;2084792;28;20119;-75
2022/10/19 01:33:04;;;;;;;4.10;0.50;;;;;;;9.32;100.00;102708.22;2079674;28;35970;-73
2022/10/19 01:34:32;;;;;;;5.53;0.47;;;;;;;9.32;100.00;102710.91;2079208;28;35447;-74
2022/10/19 01:35:51;;;;;;;5.20;0.70;;;;;;;9.36;100.00;102718.94;2079021;28;35703;-74
2022/10/19 01:36:57;;;;;;;9.55;0.95;;;;;;;9.36;100.00;102718.06;2084945;28;32492;-74
2022/10/19 01:38:24;;;;;;;7.22;0.65;;;;;;;9.35;100.00;102711.81;2070700;28;35781;-75
2022/10/19 01:40:10;;;;;;;8.10;0.60;;;;;;;9.39;100.00;102712.75;2070008;28;20206;-75
2022/10/19 01:41:20;;;;;;;7.55;0.50;;;;;;;9.38;100.00;102710.06;2062373;28;33976;-74
2022/10/19 01:42:31;;;;;;;3.60;0.30;;;;;;;9.38;100.00;102702.94;2062406;28;35795;-74
2022/10/19 01:44:09;;;;;;;6.68;0.70;;;;;;;9.39;100.00;102710.09;2073687;28;32227;-74
2022/10/19 01:45:49;;;;;;;6.57;0.40;;;;;;;9.41;100.00;102712.78;2080650;28;34946;-73
2022/10/19 01:47:03;;;;;;;3.80;0.38;;;;;;;9.41;100.00;102699.41;2079019;28;30434;-73
2022/10/19 01:48:25;;;;;;;5.43;0.68;;;;;;;9.41;100.00;102702.09;2104187;22;32410;-75
2022/10/19 01:50:08;;;;;;;7.07;0.80;;;;;;;9.43;100.00;102701.19;2063302;28;34350;-73
2022/10/19 01:51:48;;;;;;;5.22;0.50;;;;;;;9.42;100.00;102695.84;2062916;28;36842;-73
2022/10/19 01:52:57;;;;;;;7.70;0.60;;;;;;;9.45;100.00;102701.22;2038779;29;20898;-73
2022/10/19 01:54:05;;;;;;;3.20;0.30;;;;;;;9.43;100.00;102703.00;2057508;28;32473;-75
2022/10/19 01:55:11;;;;;;;4.60;0.40;;;;;;;9.41;100.00;102697.63;2062836;28;37632;-74
2022/10/19 01:56:17;;;;;;;4.97;0.57;;;;;;;9.41;100.00;102705.63;2062769;28;30680;-75
2022/10/19 01:57:25;;;;;;;6.15;0.40;;;;;;;9.38;100.00;102699.38;2064144;28;20043;-75
2022/10/19 01:58:32;;;;;;;7.18;0.30;;;;;;;9.39;100.00;102701.19;2063335;28;20035;-73
2022/10/19 01:59:35;;;;;;;6.50;0.65;;;;;;;9.38;100.00;102700.25;2054239;28;40702;-73
2022/10/19 02:00:44;;;;;;;8.57;0.60;;;;;;;9.36;100.00;102696.69;2056686;28;20198;-73
2022/10/19 02:01:50;;;;;;;7.25;0.55;;;;;;;9.33;100.00;102692.22;2067894;28;35316;-74
2022/10/19 02:02:54;;;;;;;8.05;0.60;;;;;;;9.33;100.00;102696.63;2054617;28;29815;-73
2022/10/19 02:03:57;;;;;;;7.50;0.60;;;;;;;9.33;100.00;102693.97;2055170;28;38257;-75
2022/10/19 02:05:03;;;;;;;5.35;0.50;;;;;;;9.33;100.00;102702.91;2071719;28;20046;-73
2022/10/19 02:06:08;;;;;;;3.60;0.40;;;;;;;9.33;100.00;102700.22;2062282;28;37660;-74
2022/10/19 02:07:10;;;;;;;2.80;0.32;;;;;;;9.33;100.00;102697.56;2065428;28;30170;-73
2022/10/19 02:08:49;;;;;;;5.10;0.40;;;;;;;9.34;100.00;102695.75;2064732;28;28767;-75
2022/10/19 02:09:51;;;;;;;9.45;0.50;;;;;;;9.36;100.00;102704.69;2071726;28;36848;-75
2022/10/19 02:10:56;;;;;;;7.25;0.40;;;;;;;9.35;100.00;102700.25;2067390;28;39275;-74
2022/10/19 02:12:02;;;;;;;8.00;0.50;;;;;;;9.35;100.00;102695.78;2072596;28;30653;-73
2022/10/19 02:13:06;;;;;;;10.23;0.50;;;;;;;9.38;100.00;102699.38;2071903;28;39677;-74
2022/10/19 02:14:13;;;;;;;5.63;1.05;;;;;;;9.39;100.00;102698.50;2073591;28;20038;-73
2022/10/19 02:15:21;;;;;;;4.50;0.30;;;;;;;9.38;100.00;102689.56;2071811;28;36847;-76
2022/10/19 02:16:39;;;;;;;5.03;0.40;;;;;;;9.40;100.00;102692.25;2073571;28;33684;-73
2022/10/19 02:17:50;;;;;;;3.85;0.30;;;;;;;9.39;100.00;102698.50;2077622;28;35015;-74
2022/10/19 02:18:56;;;;;;;5.88;0.30;;;;;;;9.39;100.00;102696.72;2065549;28;33581;-73
2022/10/19 02:19:59;;;;;;;6.90;0.40;;;;;;;9.41;100.00;102702.97;2067056;28;20054;-75
2022/10/19 02:21:06;;;;;;;7.55;0.50;;;;;;;9.39;100.00;102698.50;2056911;28;29714;-75
2022/10/19 02:22:08;;;;;;;5.97;0.40;;;;;;;9.40;100.00;102694.94;2063989;28;38041;-74
2022/10/19 02:23:12;;;;;;;4.82;0.25;;;;;;;9.39;100.00;102691.38;2063596;28;35798;-74
2022/10/19 02:24:14;;;;;;;7.47;0.70;;;;;;;9.41;100.00;102699.41;2048195;28;33907;-74
2022/10/19 02:25:16;;;;;;;8.90;0.52;;;;;;;9.40;100.00;102698.50;2056875;28;20039;-75
2022/10/19 02:26:18;;;;;;;6.25;0.70;;;;;;;9.40;100.00;102695.81;2064427;28;38518;-75
2022/10/19 02:27:22;;;;;;;7.43;0.63;;;;;;;9.43;100.00;102694.97;2064253;28;35545;-75
2022/10/19 02:28:25;;;;;;;4.65;0.30;;;;;;;9.42;100.00;102696.75;2064347;28;36055;-75
2022/10/19 02:29:27;;;;;;;7.80;1.13;;;;;;;9.41;100.00;102694.06;2063432;28;34990;-74
2022/10/19 02:30:29;;;;;;;3.13;0.28;;;;;;;9.41;100.00;102686.94;2064313;28;20951;-75
2022/10/19 02:31:31;;;;;;;6.13;0.50;;;;;;;9.41;100.00;102686.94;2063874;28;31571;-75
2022/10/19 02:32:32;;;;;;;7.28;0.40;;;;;;;9.39;100.00;102686.03;2063806;28;36510;-75
2022/10/19 02:33:35;;;;;;;6.30;0.35;;;;;;;9.41;100.00;102694.06;2056173;28;21006;-73
2022/10/19 02:34:38;;;;;;;3.53;0.30;;;;;;;9.39;100.00;102696.72;2063639;28;34750;-74
2022/10/19 02:35:40;;;;;;;3.92;0.30;;;;;;;9.38;100.00;102697.59;2071275;28;32611;-75
2022/10/19 02:36:44;;;;;;;4.22;0.43;;;;;;;9.40;100.00;102703.84;2056093;28;20039;-75
2022/10/19 02:37:46;;;;;;;5.32;0.40;;;;;;;9.37;100.00;102698.47;2055758;28;40402;-75
2022/10/19 02:38:48;;;;;;;3.85;0.22;;;;;;;9.38;100.00;102700.25;2064632;28;34022;-74
2022/10/19 02:39:50;;;;;;;3.85;0.40;;;;;;;9.37;100.00;102698.47;2063639;28;35474;-75
2022/10/19 02:41:23;;;;;;;7.53;0.70;;;;;;;9.36;100.00;102699.34;2055505;28;36888;-75
2022/10/19 02:42:49;;;;;;;6.50;0.75;;;;;;;9.34;100.00;102695.75;2064177;28;29296;-74
2022/10/19 02:44:02;;;;;;;4.45;0.30;;;;;;;9.33;100.00;102696.63;2063891;28;38544;-75
2022/10/19 02:45:04;;;;;;;6.93;0.52;;;;;;;9.30;100.00;102694.84;2063564;28;34482;-75
2022/10/19 02:46:29;;;;;;;6.85;0.60;;;;;;;9.29;100.00;102701.06;2063464;28;27351;-73
2022/10/19 02:47:48;;;;;;;5.22;0.32;;;;;;;9.28;100.00;102693.94;2063917;28;36192;-74
2022/10/19 02:48:51;;;;;;;6.43;0.50;;;;;;;9.25;100.00;102701.91;2063429;28;41023;-73
2022/10/19 02:49:52;;;;;;;7.93;0.40;;;;;;;9.23;100.00;102694.75;2058200;28;20789;-75
2022/10/19 02:50:54;;;;;;;8.88;0.65;;;;;;;9.21;100.00;102701.88;2063401;28;41734;-73
2022/10/19 02:52:03;;;;;;;6.53;0.43;;;;;;;9.18;100.00;102703.59;2063746;28;35504;-75
2022/10/19 02:53:06;;;;;;;4.80;0.43;;;;;;;9.20;100.00;102705.41;2064251;28;34484;-75
2022/10/19 02:54:08;;;;;;;4.68;0.38;;;;;;;9.18;100.00;102703.59;2064292;28;32866;-75
2022/10/19 02:55:09;;;;;;;7.85;0.40;;;;;;;9.16;100.00;102704.47;2064166;28;36214;-74
2022/10/19 02:56:11;;;;;;;7.57;0.60;;;;;;;9.14;100.00;102707.13;2063888;28;38724;-75
2022/10/19 02:57:25;;;;;;;5.35;0.52;;;;;;;9.12;100.00;102708.91;2063662;28;38126;-73
2022/10/19 02:58:27;;;;;;;8.73;0.40;;;;;;;9.12;100.00;102698.19;2065332;28;29301;-74
2022/10/19 02:59:29;;;;;;;6.05;0.50;;;;;;;9.11;100.00;102709.75;2071706;28;34511;-73
2022/10/19 03:00:30;;;;;;;4.65;0.30;;;;;;;9.11;100.00;102707.09;2063070;28;34921;-74
2022/10/19 03:01:32;;;;;;;6.57;0.47;;;;;;;9.11;100.00;102709.75;2063392;28;34907;-74
2022/10/19 03:02:34;;;;;;;4.22;0.65;;;;;;;9.12;100.00;102716.03;2063449;28;33694;-74
2022/10/19 03:03:35;;;;;;;9.13;0.70;;;;;;;9.12;100.00;102708.00;2063355;28;34346;-73
2022/10/19 03:04:40;;;;;;;5.13;0.50;;;;;;;9.13;100.00;102710.69;2068934;28;36272;-74
2022/10/19 03:05:42;;;;;;;8.43;0.65;;;;;;;9.12;100.00;102706.22;2071586;28;32101;-74
2022/10/19 03:06:44;;;;;;;7.45;0.60;;;;;;;9.13;100.00;102715.13;2072197;28;32836;-74
2022/10/19 03:07:45;;;;;;;2.67;0.20;;;;;;;9.12;100.00;102711.56;2098659;22;28308;-75
2022/10/19 03:08:47;;;;;;;2.70;0.30;;;;;;;9.10;100.00;102715.13;2081834;28;38131;-74
2022/10/19 03:09:49;;;;;;;7.65;0.30;;;;;;;9.09;100.00;102716.88;2072402;28;32636;-73
2022/10/19 03:10:50;;;;;;;3.35;0.32;;;;;;;9.08;100.00;102712.41;2071609;28;37384;-74
2022/10/19 03:11:56;;;;;;;4.40;0.50;;;;;;;9.07;100.00;102710.59;2071855;28;34662;-75
2022/10/19 03:12:58;;;;;;;2.65;0.20;;;;;;;9.06;100.00;102711.50;2071889;28;31071;-74
2022/10/19 03:14:00;;;;;;;5.43;0.38;;;;;;;9.07;100.00;102715.94;2071932;28;34584;-74
2022/10/19 03:15:02;;;;;;;4.82;0.45;;;;;;;9.07;100.00;102720.41;2071674;28;38115;-74
2022/10/19 03:16:12;;;;;;;12.32;0.70;;;;;;;9.09;100.00;102714.19;2073019;28;20042;-73
2022/10/19 03:17:13;;;;;;;9.77;0.77;;;;;;;9.11;100.00;102717.78;2071229;28;35464;-73
2022/10/19 03:18:15;;;;;;;8.20;0.60;;;;;;;9.09;100.00;102714.19;2071570;28;30970;-73
2022/10/19 03:19:17;;;;;;;8.45;0.50;;;;;;;9.10;100.00;102720.47;2071577;28;40774;-74
2022/10/19 03:20:19;;;;;;;7.30;0.68;;;;;;;9.08;100.00;102715.09;2072138;28;30122;-73
2022/10/19 03:21:21;;;;;;;5.97;0.40;;;;;;;9.07;100.00;102715.94;2071412;28;34410;-73
2022/10/19 03:22:25;;;;;;;6.43;0.40;;;;;;;9.07;100.00;102707.06;2071585;28;36100;-75
2022/10/19 03:23:30;;;;;;;6.60;0.50;;;;;;;9.06;100.00;102708.84;2072280;28;20050;-74
2022/10/19 03:24:32;;;;;;;4.85;0.40;;;;;;;9.10;100.00;102716.00;2071142;28;30873;-75
2022/10/19 03:25:36;;;;;;;7.80;0.40;;;;;;;9.07;100.00;102710.59;2063276;28;40211;-75
2022/10/19 03:26:39;;;;;;;8.27;0.40;;;;;;;9.07;100.00;102715.94;2072325;28;20535;-75
2022/10/19 03:27:43;;;;;;;3.92;0.32;;;;;;;9.06;100.00;102714.19;2071583;28;40455;-75
2022/10/19 03:28:44;;;;;;;7.85;0.40;;;;;;;9.07;100.00;102713.28;2072005;28;38245;-75
2022/10/19 03:29:46;;;;;;;6.85;0.40;;;;;;;9.06;100.00;102716.84;2071963;28;32069;-75
2022/10/19 03:30:48;;;;;;;4.10;0.30;;;;;;;9.05;100.00;102714.16;2072099;28;36405;-75
2022/10/19 03:31:50;;;;;;;7.20;0.43;;;;;;;9.03;100.00;102708.78;2072447;28;20038;-75
2022/10/19 03:32:51;;;;;;;8.10;0.40;;;;;;;9.02;100.00;102712.31;2072387;28;34041;-75
2022/10/19 03:33:53;;;;;;;7.15;0.63;;;;;;;9.00;100.00;102711.41;2071319;28;39319;-75
2022/10/19 03:34:55;;;;;;;7.47;0.60;;;;;;;8.98;100.00;102719.41;2062933;28;36707;-75
2022/10/19 03:36:26;;;;;;;6.50;0.50;;;;;;;8.96;100.00;102714.94;2064537;28;20043;-75
2022/10/19 03:37:28;;;;;;;4.63;0.40;;;;;;;8.94;100.00;102720.25;2063979;28;37563;-72
2022/10/19 03:38:29;;;;;;;7.20;0.40;;;;;;;8.93;100.00;102725.56;2065535;28;37347;-73
2022/10/19 03:39:31;;;;;;;5.72;0.40;;;;;;;8.90;100.00;102728.19;2064210;28;31443;-73
2022/10/19 03:40:33;;;;;;;5.53;0.50;;;;;;;8.88;100.00;102722.88;2064119;28;30107;-74
2022/10/19 03:41:37;;;;;;;10.23;0.45;;;;;;;8.86;100.00;102732.59;2063577;28;37484;-73
2022/10/19 03:42:38;;;;;;;8.15;0.60;;;;;;;8.85;100.00;102722.81;2064140;28;31434;-74
2022/10/19 03:43:40;;;;;;;6.18;0.50;;;;;;;8.85;100.00;102729.94;2063929;28;30919;-74
2022/10/19 03:44:42;;;;;;;7.30;0.40;;;;;;;8.84;100.00;102736.16;2063305;28;41783;-74
2022/10/19 03:45:46;;;;;;;6.25;0.30;;;;;;;8.82;100.00;102728.09;2064073;28;29967;-74
2022/10/19 03:46:47;;;;;;;8.43;0.43;;;;;;;8.82;100.00;102732.56;2064257;28;22553;-74
2022/10/19 03:47:50;;;;;;;7.45;0.40;;;;;;;8.79;100.00;102726.31;2063500;28;38963;-74
2022/10/19 03:48:52;;;;;;;4.65;0.40;;;;;;;8.77;100.00;102720.06;2063476;28;38025;-74
2022/10/19 03:49:54;;;;;;;5.97;0.43;;;;;;;8.76;100.00;102720.91;2063320;28;36766;-74
2022/10/19 03:51:00;;;;;;;4.40;0.40;;;;;;;8.75;100.00;102718.22;2063943;28;20038;-74
2022/10/19 03:52:02;;;;;;;3.90;0.22;;;;;;;8.74;100.00;102725.34;2063840;28;20045;-74
2022/10/19 03:53:04;;;;;;;5.63;0.60;;;;;;;8.75;100.00;102729.78;2063617;28;34521;-74
2022/10/19 03:54:11;;;;;;;6.10;0.40;;;;;;;8.75;100.00;102726.22;2063913;28;28393;-74
2022/10/19 03:55:13;;;;;;;9.32;0.63;;;;;;;8.76;100.00;102723.59;2063551;28;31171;-74
2022/10/19 03:56:20;;;;;;;6.35;0.45;;;;;;;8.76;100.00;102718.25;2063750;28;20824;-74
2022/10/19 03:57:22;;;;;;;6.35;0.40;;;;;;;8.77;100.00;102717.38;2064234;28;20051;-74
2022/10/19 03:58:24;;;;;;;8.25;0.50;;;;;;;8.79;100.00;102714.72;2063745;28;32977;-74
2022/10/19 03:59:25;;;;;;;9.07;0.60;;;;;;;8.81;100.00;102717.41;2064397;28;20039;-73
2022/10/19 04:00:27;;;;;;;5.18;0.30;;;;;;;8.82;100.00;102713.88;2063592;28;35901;-74
2022/10/19 04:01:39;;;;;;;5.45;0.38;;;;;;;8.84;100.00;102718.34;2063680;28;36838;-74
2022/10/19 04:02:40;;;;;;;5.72;0.38;;;;;;;8.87;100.00;102722.84;2063068;28;39304;-74
2022/10/19 04:03:43;;;;;;;8.90;1.00;;;;;;;8.88;100.00;102717.53;2062868;28;35732;-74
2022/10/19 04:04:44;;;;;;;6.97;0.60;;;;;;;8.89;100.00;102721.09;2077051;28;37748;-74
2022/10/19 04:05:46;;;;;;;8.77;0.60;;;;;;;8.90;100.00;102723.78;2079791;28;37543;-74
2022/10/19 04:06:49;;;;;;;7.05;0.50;;;;;;;8.92;100.00;102719.34;2080217;28;32884;-74
2022/10/19 04:07:51;;;;;;;6.28;0.55;;;;;;;8.94;100.00;102724.72;2079510;28;31484;-74
2022/10/19 04:08:53;;;;;;;6.30;0.50;;;;;;;8.95;100.00;102723.81;2080346;28;33103;-74
2022/10/19 04:09:57;;;;;;;5.93;0.43;;;;;;;8.95;100.00;102721.16;2080155;28;31310;-74
2022/10/19 04:11:01;;;;;;;10.65;0.63;;;;;;;8.95;100.00;102723.81;2080147;28;32210;-74
2022/10/19 04:12:05;;;;;;;10.27;0.60;;;;;;;8.96;100.00;102725.63;2080102;28;30685;-74
2022/10/19 04:13:07;;;;;;;9.63;0.68;;;;;;;8.96;100.00;102723.84;2079862;28;29867;-75
2022/10/19 04:14:12;;;;;;;6.97;0.50;;;;;;;8.98;100.00;102729.22;2080228;28;31064;-73
2022/10/19 04:15:18;;;;;;;6.32;0.50;;;;;;;8.97;100.00;102727.41;2079600;28;39543;-74
2022/10/19 04:16:21;;;;;;;14.52;0.68;;;;;;;8.99;100.00;102733.69;2079477;28;34531;-74
2022/10/19 04:17:24;;;;;;;7.10;0.43;;;;;;;9.04;100.00;102725.72;2079772;28;40352;-74
2022/10/19 04:18:26;;;;;;;9.93;0.60;;;;;;;9.08;100.00;102728.44;2079570;28;34942;-75
2022/10/19 04:19:29;;;;;;;12.13;0.70;;;;;;;9.10;100.00;102726.69;2078774;28;36506;-74
2022/10/19 04:20:31;;;;;;;11.90;0.95;;;;;;;9.11;100.00;102725.78;2079226;28;35186;-74
2022/10/19 04:21:36;;;;;;;9.18;1.08;;;;;;;9.10;100.00;102729.38;2079674;28;20919;-75
2022/10/19 04:22:38;;;;;;;7.05;0.50;;;;;;;9.12;100.00;102732.94;2079515;28;37044;-74
2022/10/19 04:23:39;;;;;;;13.25;0.93;;;;;;;9.13;100.00;102732.09;2079217;28;33838;-74
2022/10/19 04:24:41;;;;;;;6.22;0.70;;;;;;;9.13;100.00;102732.09;2079934;28;37147;-74
2022/10/19 04:25:42;;;;;;;8.18;0.70;;;;;;;9.12;100.00;102732.94;2079981;28;35681;-74
2022/10/19 04:26:51;;;;;;;5.03;0.43;;;;;;;9.12;100.00;102732.94;2079530;28;36954;-74
2022/10/19 04:27:53;;;;;;;9.52;0.82;;;;;;;9.13;100.00;102734.75;2079408;28;32559;-74
2022/10/19 04:29:00;;;;;;;9.10;0.68;;;;;;;9.13;100.00;102737.44;2079168;28;29711;-74
2022/10/19 04:30:02;;;;;;;11.05;0.65;;;;;;;9.14;100.00;102741.88;2078714;28;35213;-74
2022/10/19 04:31:05;;;;;;;9.63;0.60;;;;;;;9.13;100.00;102740.09;2071577;28;39036;-74
2022/10/19 04:32:06;;;;;;;8.73;0.50;;;;;;;9.14;100.00;102744.53;2078809;28;31006;-74
2022/10/19 04:33:08;;;;;;;11.90;0.70;;;;;;;9.15;100.00;102750.78;2080167;28;34225;-74
2022/10/19 04:34:11;;;;;;;6.50;0.60;;;;;;;9.16;100.00;102747.25;2079502;28;33179;-74
2022/10/19 04:35:13;;;;;;;6.07;0.68;;;;;;;9.17;100.00;102743.69;2080293;28;20045;-74
2022/10/19 04:36:15;;;;;;;8.73;0.80;;;;;;;9.15;100.00;102741.00;2079755;28;31710;-73
2022/10/19 04:37:16;;;;;;;11.98;1.05;;;;;;;9.17;100.00;102733.91;2080662;28;25415;-74
2022/10/19 04:38:18;;;;;;;6.60;0.57;;;;;;;9.17;100.00;102739.25;2079297;28;29478;-74
2022/10/19 04:39:22;;;;;;;6.68;0.50;;;;;;;9.18;100.00;102730.34;2079043;28;37368;-74
2022/10/19 04:40:24;;;;;;;7.70;0.50;;;;;;;9.17;100.00;102735.69;2079758;28;31839;-75
2022/10/19 04:41:26;;;;;;;10.52;0.50;;;;;;;9.18;100.00;102735.66;2079642;28;37398;-75
2022/10/19 04:42:28;;;;;;;10.02;0.68;;;;;;;9.19;100.00;102739.28;2079817;28;37270;-75
2022/10/19 04:43:30;;;;;;;10.30;1.05;;;;;;;9.18;100.00;102741.03;2079825;28;20046;-74
2022/10/19 04:44:32;;;;;;;9.57;0.63;;;;;;;9.18;100.00;102742.81;2079509;28;34187;-75
2022/10/19 04:45:34;;;;;;;12.13;1.38;;;;;;;9.19;100.00;102739.28;2079410;28;31874;-74
2022/10/19 04:46:37;;;;;;;6.45;0.50;;;;;;;9.18;100.00;102741.03;2080016;28;20034;-74
2022/10/19 04:47:41;;;;;;;7.75;0.65;;;;;;;9.17;100.00;102739.25;2079744;28;20068;-74
2022/10/19 04:48:45;;;;;;;10.65;0.93;;;;;;;9.17;100.00;102741.03;2079107;28;34101;-74
2022/10/19 04:49:46;;;;;;;5.90;0.60;;;;;;;9.16;100.00;102734.75;2079584;28;32860;-74
2022/10/19 04:50:48;;;;;;;8.95;0.73;;;;;;;9.17;100.00;102739.25;2079645;28;38247;-74
2022/10/19 04:51:53;;;;;;;9.57;1.05;;;;;;;9.19;100.00;102744.63;2080332;28;20152;-74
2022/10/19 04:52:55;;;;;;;11.40;0.75;;;;;;;9.18;100.00;102749.03;2078623;28;34917;-74
2022/10/19 04:53:57;;;;;;;9.77;0.50;;;;;;;9.17;100.00;102744.59;2079457;28;39540;-73
2022/10/19 04:55:00;;;;;;;9.07;0.50;;;;;;;9.18;100.00;102741.03;2079921;28;29928;-74
2022/10/19 04:56:10;;;;;;;12.63;0.93;;;;;;;9.20;100.00;102748.19;2079763;28;34062;-73
2022/10/19 04:57:14;;;;;;;9.80;0.80;;;;;;;9.21;100.00;102744.63;2080531;28;20768;-73
2022/10/19 04:58:15;;;;;;;11.68;1.35;;;;;;;9.23;100.00;102742.88;2079524;28;39386;-73
2022/10/19 04:59:17;;;;;;;6.93;0.50;;;;;;;9.22;100.00;102741.06;2080033;28;23437;-74
2022/10/19 05:00:19;;;;;;;6.47;0.57;;;;;;;9.23;100.00;102742.88;2079725;28;38673;-74
2022/10/19 05:01:21;;;;;;;12.93;0.77;;;;;;;9.22;100.00;102735.72;2079495;28;32673;-73
2022/10/19 05:02:23;;;;;;;11.77;1.00;;;;;;;9.24;100.00;102745.56;2079881;28;20156;-74
2022/10/19 05:03:24;;;;;;;9.20;0.40;;;;;;;9.24;100.00;102739.31;2079090;28;33971;-74
2022/10/19 05:04:26;;;;;;;9.15;0.73;;;;;;;9.26;100.00;102740.22;2080065;28;27089;-74
2022/10/19 05:05:28;;;;;;;14.88;1.45;;;;;;;9.28;100.00;102746.50;2079340;28;36542;-76
2022/10/19 05:06:30;;;;;;;7.95;0.50;;;;;;;9.28;100.00;102733.13;2079864;28;33043;-73
2022/10/19 05:07:32;;;;;;;3.40;0.47;;;;;;;9.29;100.00;102740.25;2079793;28;20050;-75